Arkansaw, Wisconsin
Current Conditions -  °F | °C
As of 4:35 PM on Friday 19 Dec 2014 (Local Time) from KLUM Reporting Station
Overcast Overcast  
Wind Chill: -5°   Ceiling: 2800
Heat Index: -2°   Visibility: 10mi
Dew Point: -6°   Wind: 5mph
Humidity: 75%   Direction: 130°SE
Pressure: 30.24"   Gusts: NA
Location:  44.63°N, 92.03°W
Report Text: KLUM 192235Z AUTO 13004KT 10SM SCT020 OVC028 M02/M06 A3024 RMK AO2 T10221061
Loading
Personal Weather Stations






























Interactive Weather Map New forecast layout! Learn more

10-Day Weather Forecast

Advertisements
Track Severe Weather on mobile